sensor_id;sensor_type;location;lat;lon;timestamp;P1;durP1;ratioP1;P2;durP2;ratioP2
4642;SDS011;2334;48.710;9.622;2022-11-15T00:01:14;14.83;;;8.20;;
4642;SDS011;2334;48.710;9.622;2022-11-15T00:03:43;17.43;;;8.80;;
4642;SDS011;2334;48.710;9.622;2022-11-15T00:06:09;18.00;;;7.47;;
4642;SDS011;2334;48.710;9.622;2022-11-15T00:08:36;12.83;;;7.37;;
4642;SDS011;2334;48.710;9.622;2022-11-15T00:11:03;18.70;;;8.00;;
4642;SDS011;2334;48.710;9.622;2022-11-15T00:13:30;16.50;;;8.10;;
4642;SDS011;2334;48.710;9.622;2022-11-15T00:15:59;12.40;;;7.10;;
4642;SDS011;2334;48.710;9.622;2022-11-15T00:18:27;9.40;;;6.13;;
4642;SDS011;2334;48.710;9.622;2022-11-15T00:20:55;12.83;;;7.30;;
4642;SDS011;2334;48.710;9.622;2022-11-15T00:23:22;10.80;;;7.10;;
4642;SDS011;2334;48.710;9.622;2022-11-15T00:25:54;12.73;;;6.70;;
4642;SDS011;2334;48.710;9.622;2022-11-15T00:28:22;17.57;;;8.00;;
4642;SDS011;2334;48.710;9.622;2022-11-15T00:30:49;14.83;;;7.97;;
4642;SDS011;2334;48.710;9.622;2022-11-15T00:33:17;12.33;;;6.80;;
4642;SDS011;2334;48.710;9.622;2022-11-15T00:35:45;17.20;;;9.00;;
4642;SDS011;2334;48.710;9.622;2022-11-15T00:38:11;13.60;;;8.20;;
4642;SDS011;2334;48.710;9.622;2022-11-15T00:40:38;16.77;;;7.80;;
4642;SDS011;2334;48.710;9.622;2022-11-15T00:43:05;21.13;;;8.60;;
4642;SDS011;2334;48.710;9.622;2022-11-15T00:45:33;14.70;;;7.67;;
4642;SDS011;2334;48.710;9.622;2022-11-15T00:48:00;21.47;;;7.50;;
4642;SDS011;2334;48.710;9.622;2022-11-15T00:50:28;16.67;;;8.93;;
4642;SDS011;2334;48.710;9.622;2022-11-15T00:52:55;18.10;;;8.73;;
4642;SDS011;2334;48.710;9.622;2022-11-15T00:55:22;16.30;;;9.70;;
4642;SDS011;2334;48.710;9.622;2022-11-15T00:57:48;15.20;;;8.30;;
4642;SDS011;2334;48.710;9.622;2022-11-15T01:00:16;19.60;;;9.80;;
4642;SDS011;2334;48.710;9.622;2022-11-15T01:02:43;15.30;;;9.43;;
4642;SDS011;2334;48.710;9.622;2022-11-15T01:05:10;15.77;;;7.67;;
4642;SDS011;2334;48.710;9.622;2022-11-15T01:07:38;12.53;;;7.63;;
4642;SDS011;2334;48.710;9.622;2022-11-15T01:10:05;13.23;;;7.50;;
4642;SDS011;2334;48.710;9.622;2022-11-15T01:12:32;13.97;;;7.47;;
4642;SDS011;2334;48.710;9.622;2022-11-15T01:14:59;18.20;;;9.10;;
4642;SDS011;2334;48.710;9.622;2022-11-15T01:17:27;14.10;;;8.40;;
4642;SDS011;2334;48.710;9.622;2022-11-15T01:19:53;15.13;;;8.33;;
4642;SDS011;2334;48.710;9.622;2022-11-15T01:22:20;14.20;;;7.77;;
4642;SDS011;2334;48.710;9.622;2022-11-15T01:24:50;17.27;;;8.30;;
4642;SDS011;2334;48.710;9.622;2022-11-15T01:27:17;12.63;;;7.90;;
4642;SDS011;2334;48.710;9.622;2022-11-15T01:29:43;11.80;;;7.30;;
4642;SDS011;2334;48.710;9.622;2022-11-15T01:32:10;14.23;;;7.93;;
4642;SDS011;2334;48.710;9.622;2022-11-15T01:34:37;16.33;;;8.83;;
4642;SDS011;2334;48.710;9.622;2022-11-15T01:37:04;16.03;;;8.83;;
4642;SDS011;2334;48.710;9.622;2022-11-15T01:39:34;14.10;;;7.73;;
4642;SDS011;2334;48.710;9.622;2022-11-15T01:42:02;13.13;;;7.63;;
4642;SDS011;2334;48.710;9.622;2022-11-15T01:44:40;13.00;;;6.80;;
4642;SDS011;2334;48.710;9.622;2022-11-15T01:47:09;13.20;;;7.27;;
4642;SDS011;2334;48.710;9.622;2022-11-15T01:49:39;11.93;;;6.40;;
4642;SDS011;2334;48.710;9.622;2022-11-15T01:52:12;11.50;;;6.87;;
4642;SDS011;2334;48.710;9.622;2022-11-15T01:54:43;11.53;;;6.97;;
4642;SDS011;2334;48.710;9.622;2022-11-15T01:57:12;15.53;;;7.13;;
4642;SDS011;2334;48.710;9.622;2022-11-15T01:59:40;12.03;;;7.20;;
4642;SDS011;2334;48.710;9.622;2022-11-15T02:02:10;10.50;;;6.10;;
4642;SDS011;2334;48.710;9.622;2022-11-15T02:04:39;13.63;;;6.53;;
4642;SDS011;2334;48.710;9.622;2022-11-15T02:07:09;12.47;;;6.37;;
4642;SDS011;2334;48.710;9.622;2022-11-15T02:09:38;12.80;;;6.17;;
4642;SDS011;2334;48.710;9.622;2022-11-15T02:12:06;8.57;;;5.70;;
4642;SDS011;2334;48.710;9.622;2022-11-15T02:14:36;8.87;;;5.53;;
4642;SDS011;2334;48.710;9.622;2022-11-15T02:17:09;10.07;;;6.30;;
4642;SDS011;2334;48.710;9.622;2022-11-15T02:22:42;13.13;;;5.20;;
4642;SDS011;2334;48.710;9.622;2022-11-15T02:25:25;8.83;;;5.90;;
4642;SDS011;2334;48.710;9.622;2022-11-15T02:28:08;5.40;;;4.50;;
4642;SDS011;2334;48.710;9.622;2022-11-15T02:30:47;8.40;;;5.37;;
4642;SDS011;2334;48.710;9.622;2022-11-15T02:33:25;9.20;;;5.00;;
4642;SDS011;2334;48.710;9.622;2022-11-15T02:36:00;9.93;;;4.67;;
4642;SDS011;2334;48.710;9.622;2022-11-15T02:38:33;8.60;;;4.97;;
4642;SDS011;2334;48.710;9.622;2022-11-15T02:41:07;9.13;;;4.93;;
4642;SDS011;2334;48.710;9.622;2022-11-15T02:43:37;10.93;;;5.20;;
4642;SDS011;2334;48.710;9.622;2022-11-15T02:46:27;7.93;;;4.70;;
4642;SDS011;2334;48.710;9.622;2022-11-15T02:49:16;6.57;;;4.90;;
4642;SDS011;2334;48.710;9.622;2022-11-15T02:51:45;7.70;;;5.23;;
4642;SDS011;2334;48.710;9.622;2022-11-15T02:54:14;6.70;;;4.97;;
4642;SDS011;2334;48.710;9.622;2022-11-15T02:56:45;13.90;;;5.47;;
4642;SDS011;2334;48.710;9.622;2022-11-15T02:59:15;14.93;;;6.20;;
4642;SDS011;2334;48.710;9.622;2022-11-15T03:01:59;8.70;;;5.83;;
4642;SDS011;2334;48.710;9.622;2022-11-15T03:04:38;14.50;;;6.57;;
4642;SDS011;2334;48.710;9.622;2022-11-15T03:07:11;10.33;;;5.50;;
4642;SDS011;2334;48.710;9.622;2022-11-15T03:09:45;10.43;;;5.63;;
4642;SDS011;2334;48.710;9.622;2022-11-15T03:12:23;7.57;;;5.37;;
4642;SDS011;2334;48.710;9.622;2022-11-15T03:14:54;8.90;;;5.50;;
4642;SDS011;2334;48.710;9.622;2022-11-15T03:17:27;9.67;;;5.13;;
4642;SDS011;2334;48.710;9.622;2022-11-15T03:19:59;10.77;;;5.70;;
4642;SDS011;2334;48.710;9.622;2022-11-15T03:22:30;9.57;;;4.93;;
4642;SDS011;2334;48.710;9.622;2022-11-15T03:25:04;11.07;;;4.93;;
4642;SDS011;2334;48.710;9.622;2022-11-15T03:27:35;10.50;;;6.07;;
4642;SDS011;2334;48.710;9.622;2022-11-15T03:30:06;9.00;;;5.30;;
4642;SDS011;2334;48.710;9.622;2022-11-15T03:32:35;11.00;;;5.37;;
4642;SDS011;2334;48.710;9.622;2022-11-15T03:35:09;9.07;;;5.53;;
4642;SDS011;2334;48.710;9.622;2022-11-15T03:37:40;8.10;;;5.00;;
4642;SDS011;2334;48.710;9.622;2022-11-15T03:40:10;16.40;;;4.63;;
4642;SDS011;2334;48.710;9.622;2022-11-15T03:42:39;9.10;;;5.33;;
4642;SDS011;2334;48.710;9.622;2022-11-15T03:45:12;7.70;;;4.87;;
4642;SDS011;2334;48.710;9.622;2022-11-15T03:47:45;6.80;;;4.77;;
4642;SDS011;2334;48.710;9.622;2022-11-15T03:50:16;7.27;;;4.27;;
4642;SDS011;2334;48.710;9.622;2022-11-15T03:52:44;5.77;;;4.13;;
4642;SDS011;2334;48.710;9.622;2022-11-15T03:55:15;6.73;;;3.93;;
4642;SDS011;2334;48.710;9.622;2022-11-15T03:57:43;7.90;;;4.70;;
4642;SDS011;2334;48.710;9.622;2022-11-15T04:00:10;8.53;;;4.83;;
4642;SDS011;2334;48.710;9.622;2022-11-15T04:02:38;19.47;;;8.60;;
4642;SDS011;2334;48.710;9.622;2022-11-15T04:05:06;22.20;;;9.37;;
4642;SDS011;2334;48.710;9.622;2022-11-15T04:07:33;18.53;;;11.50;;
4642;SDS011;2334;48.710;9.622;2022-11-15T04:10:00;12.50;;;9.43;;
4642;SDS011;2334;48.710;9.622;2022-11-15T04:12:30;12.80;;;6.70;;
4642;SDS011;2334;48.710;9.622;2022-11-15T04:14:59;7.93;;;5.27;;
4642;SDS011;2334;48.710;9.622;2022-11-15T04:17:33;9.57;;;5.33;;
4642;SDS011;2334;48.710;9.622;2022-11-15T04:20:07;11.20;;;6.53;;
4642;SDS011;2334;48.710;9.622;2022-11-15T04:22:53;10.00;;;4.90;;
4642;SDS011;2334;48.710;9.622;2022-11-15T04:25:38;4.07;;;3.20;;
4642;SDS011;2334;48.710;9.622;2022-11-15T04:28:06;9.03;;;3.77;;
4642;SDS011;2334;48.710;9.622;2022-11-15T04:30:33;6.20;;;3.53;;
4642;SDS011;2334;48.710;9.622;2022-11-15T04:33:00;4.33;;;3.30;;
4642;SDS011;2334;48.710;9.622;2022-11-15T04:35:28;3.47;;;2.70;;
4642;SDS011;2334;48.710;9.622;2022-11-15T04:37:56;2.57;;;2.40;;
4642;SDS011;2334;48.710;9.622;2022-11-15T04:40:22;4.80;;;3.27;;
4642;SDS011;2334;48.710;9.622;2022-11-15T04:42:49;6.70;;;3.13;;
4642;SDS011;2334;48.710;9.622;2022-11-15T04:45:16;3.67;;;2.97;;
4642;SDS011;2334;48.710;9.622;2022-11-15T04:47:43;3.43;;;2.43;;
4642;SDS011;2334;48.710;9.622;2022-11-15T04:50:11;2.90;;;2.57;;
4642;SDS011;2334;48.710;9.622;2022-11-15T04:52:40;3.83;;;3.47;;
4642;SDS011;2334;48.710;9.622;2022-11-15T04:55:08;10.93;;;2.90;;
4642;SDS011;2334;48.710;9.622;2022-11-15T04:57:35;6.27;;;3.50;;
4642;SDS011;2334;48.710;9.622;2022-11-15T05:00:03;5.23;;;3.50;;
4642;SDS011;2334;48.710;9.622;2022-11-15T05:02:32;4.43;;;2.60;;
4642;SDS011;2334;48.710;9.622;2022-11-15T05:05:13;5.17;;;3.37;;
4642;SDS011;2334;48.710;9.622;2022-11-15T05:07:41;6.07;;;3.37;;
4642;SDS011;2334;48.710;9.622;2022-11-15T05:10:08;6.73;;;3.53;;
4642;SDS011;2334;48.710;9.622;2022-11-15T05:12:35;8.87;;;3.27;;
4642;SDS011;2334;48.710;9.622;2022-11-15T05:15:03;5.13;;;2.97;;
4642;SDS011;2334;48.710;9.622;2022-11-15T05:17:30;4.50;;;2.90;;
4642;SDS011;2334;48.710;9.622;2022-11-15T05:19:57;7.50;;;3.10;;
4642;SDS011;2334;48.710;9.622;2022-11-15T05:22:24;4.70;;;3.10;;
4642;SDS011;2334;48.710;9.622;2022-11-15T05:24:53;5.03;;;3.80;;
4642;SDS011;2334;48.710;9.622;2022-11-15T05:27:20;4.63;;;3.20;;
4642;SDS011;2334;48.710;9.622;2022-11-15T05:29:46;5.90;;;3.47;;
4642;SDS011;2334;48.710;9.622;2022-11-15T05:32:13;4.07;;;3.40;;
4642;SDS011;2334;48.710;9.622;2022-11-15T05:34:40;5.27;;;3.27;;
4642;SDS011;2334;48.710;9.622;2022-11-15T05:37:07;6.07;;;3.30;;
4642;SDS011;2334;48.710;9.622;2022-11-15T05:39:34;4.90;;;3.23;;
4642;SDS011;2334;48.710;9.622;2022-11-15T05:42:04;4.80;;;3.73;;
4642;SDS011;2334;48.710;9.622;2022-11-15T05:44:33;4.60;;;3.53;;
4642;SDS011;2334;48.710;9.622;2022-11-15T05:47:02;4.23;;;3.83;;
4642;SDS011;2334;48.710;9.622;2022-11-15T05:49:31;6.17;;;3.90;;
4642;SDS011;2334;48.710;9.622;2022-11-15T05:51:59;4.30;;;3.60;;
4642;SDS011;2334;48.710;9.622;2022-11-15T05:54:29;10.70;;;4.13;;
4642;SDS011;2334;48.710;9.622;2022-11-15T05:56:58;8.53;;;4.80;;
4642;SDS011;2334;48.710;9.622;2022-11-15T05:59:27;6.27;;;4.77;;
4642;SDS011;2334;48.710;9.622;2022-11-15T06:01:55;8.50;;;4.90;;
4642;SDS011;2334;48.710;9.622;2022-11-15T06:04:22;7.30;;;4.77;;
4642;SDS011;2334;48.710;9.622;2022-11-15T06:06:49;6.13;;;4.90;;
4642;SDS011;2334;48.710;9.622;2022-11-15T06:09:16;6.80;;;4.37;;
4642;SDS011;2334;48.710;9.622;2022-11-15T06:11:43;9.60;;;4.30;;
4642;SDS011;2334;48.710;9.622;2022-11-15T06:14:09;13.10;;;5.10;;
4642;SDS011;2334;48.710;9.622;2022-11-15T06:16:38;8.03;;;5.57;;
4642;SDS011;2334;48.710;9.622;2022-11-15T06:19:05;14.40;;;6.80;;
4642;SDS011;2334;48.710;9.622;2022-11-15T06:21:32;12.60;;;6.20;;
4642;SDS011;2334;48.710;9.622;2022-11-15T06:23:59;16.40;;;7.97;;
4642;SDS011;2334;48.710;9.622;2022-11-15T06:26:26;22.63;;;9.63;;
4642;SDS011;2334;48.710;9.622;2022-11-15T06:28:53;20.40;;;11.47;;
4642;SDS011;2334;48.710;9.622;2022-11-15T06:31:19;24.77;;;12.77;;
4642;SDS011;2334;48.710;9.622;2022-11-15T06:33:48;26.03;;;10.00;;
4642;SDS011;2334;48.710;9.622;2022-11-15T06:36:15;15.33;;;8.27;;
4642;SDS011;2334;48.710;9.622;2022-11-15T06:38:43;16.57;;;7.60;;
4642;SDS011;2334;48.710;9.622;2022-11-15T06:41:10;12.47;;;7.80;;
4642;SDS011;2334;48.710;9.622;2022-11-15T06:43:38;12.37;;;6.13;;
4642;SDS011;2334;48.710;9.622;2022-11-15T06:46:05;8.27;;;5.37;;
4642;SDS011;2334;48.710;9.622;2022-11-15T06:48:33;9.37;;;5.70;;
4642;SDS011;2334;48.710;9.622;2022-11-15T06:51:03;16.30;;;6.90;;
4642;SDS011;2334;48.710;9.622;2022-11-15T06:53:30;12.00;;;5.80;;
4642;SDS011;2334;48.710;9.622;2022-11-15T06:55:58;8.63;;;5.90;;
4642;SDS011;2334;48.710;9.622;2022-11-15T06:58:26;11.93;;;6.63;;
4642;SDS011;2334;48.710;9.622;2022-11-15T07:00:53;18.87;;;7.37;;
4642;SDS011;2334;48.710;9.622;2022-11-15T07:03:24;15.77;;;8.40;;
4642;SDS011;2334;48.710;9.622;2022-11-15T07:05:51;19.17;;;7.97;;
4642;SDS011;2334;48.710;9.622;2022-11-15T07:08:21;14.70;;;7.60;;
4642;SDS011;2334;48.710;9.622;2022-11-15T07:10:48;10.20;;;6.73;;
4642;SDS011;2334;48.710;9.622;2022-11-15T07:13:15;11.40;;;6.40;;
4642;SDS011;2334;48.710;9.622;2022-11-15T07:15:42;11.00;;;6.73;;
4642;SDS011;2334;48.710;9.622;2022-11-15T07:18:09;15.10;;;8.10;;
4642;SDS011;2334;48.710;9.622;2022-11-15T07:20:36;10.37;;;7.00;;
4642;SDS011;2334;48.710;9.622;2022-11-15T07:23:04;14.57;;;6.50;;
4642;SDS011;2334;48.710;9.622;2022-11-15T07:25:33;11.33;;;6.30;;
4642;SDS011;2334;48.710;9.622;2022-11-15T07:28:00;12.67;;;6.93;;
4642;SDS011;2334;48.710;9.622;2022-11-15T07:30:27;12.77;;;6.70;;
4642;SDS011;2334;48.710;9.622;2022-11-15T07:32:53;11.37;;;6.47;;
4642;SDS011;2334;48.710;9.622;2022-11-15T07:35:20;12.50;;;6.50;;
4642;SDS011;2334;48.710;9.622;2022-11-15T07:37:57;16.50;;;7.90;;
4642;SDS011;2334;48.710;9.622;2022-11-15T07:40:25;9.37;;;6.10;;
4642;SDS011;2334;48.710;9.622;2022-11-15T07:42:53;10.27;;;6.60;;
4642;SDS011;2334;48.710;9.622;2022-11-15T07:45:25;11.70;;;7.07;;
4642;SDS011;2334;48.710;9.622;2022-11-15T07:47:52;10.03;;;6.23;;
4642;SDS011;2334;48.710;9.622;2022-11-15T07:50:21;16.23;;;7.97;;
4642;SDS011;2334;48.710;9.622;2022-11-15T07:52:52;13.80;;;6.93;;
4642;SDS011;2334;48.710;9.622;2022-11-15T07:55:20;13.67;;;7.10;;
4642;SDS011;2334;48.710;9.622;2022-11-15T07:57:47;11.63;;;6.00;;
4642;SDS011;2334;48.710;9.622;2022-11-15T08:00:16;13.00;;;6.30;;
4642;SDS011;2334;48.710;9.622;2022-11-15T08:02:44;14.50;;;6.40;;
4642;SDS011;2334;48.710;9.622;2022-11-15T08:05:11;17.50;;;6.53;;
4642;SDS011;2334;48.710;9.622;2022-11-15T08:07:38;7.37;;;5.50;;
4642;SDS011;2334;48.710;9.622;2022-11-15T08:10:05;13.60;;;6.93;;
4642;SDS011;2334;48.710;9.622;2022-11-15T08:12:33;17.77;;;6.60;;
4642;SDS011;2334;48.710;9.622;2022-11-15T08:15:00;10.13;;;6.43;;
4642;SDS011;2334;48.710;9.622;2022-11-15T08:17:29;14.50;;;7.13;;
4642;SDS011;2334;48.710;9.622;2022-11-15T08:19:57;14.30;;;6.87;;
4642;SDS011;2334;48.710;9.622;2022-11-15T08:22:24;12.10;;;6.50;;
4642;SDS011;2334;48.710;9.622;2022-11-15T08:24:52;9.30;;;6.03;;
4642;SDS011;2334;48.710;9.622;2022-11-15T08:27:18;15.67;;;7.60;;
4642;SDS011;2334;48.710;9.622;2022-11-15T08:29:45;13.60;;;6.43;;
4642;SDS011;2334;48.710;9.622;2022-11-15T08:32:14;14.77;;;6.67;;
4642;SDS011;2334;48.710;9.622;2022-11-15T08:34:44;11.00;;;6.30;;
4642;SDS011;2334;48.710;9.622;2022-11-15T08:37:11;10.93;;;7.17;;
4642;SDS011;2334;48.710;9.622;2022-11-15T08:39:37;13.77;;;5.90;;
4642;SDS011;2334;48.710;9.622;2022-11-15T08:42:04;11.80;;;6.57;;
4642;SDS011;2334;48.710;9.622;2022-11-15T08:44:31;15.67;;;5.67;;
4642;SDS011;2334;48.710;9.622;2022-11-15T08:46:58;8.63;;;4.97;;
4642;SDS011;2334;48.710;9.622;2022-11-15T08:49:25;12.53;;;5.50;;
4642;SDS011;2334;48.710;9.622;2022-11-15T08:51:53;7.37;;;4.80;;
4642;SDS011;2334;48.710;9.622;2022-11-15T08:54:20;12.30;;;6.30;;
4642;SDS011;2334;48.710;9.622;2022-11-15T08:56:47;13.53;;;7.43;;
4642;SDS011;2334;48.710;9.622;2022-11-15T08:59:14;8.33;;;5.63;;
4642;SDS011;2334;48.710;9.622;2022-11-15T09:01:41;7.73;;;4.60;;
4642;SDS011;2334;48.710;9.622;2022-11-15T09:04:07;12.60;;;5.83;;
4642;SDS011;2334;48.710;9.622;2022-11-15T09:06:34;6.57;;;4.20;;
4642;SDS011;2334;48.710;9.622;2022-11-15T09:09:03;9.90;;;5.13;;
4642;SDS011;2334;48.710;9.622;2022-11-15T09:11:30;9.23;;;5.43;;
4642;SDS011;2334;48.710;9.622;2022-11-15T09:13:57;7.40;;;5.00;;
4642;SDS011;2334;48.710;9.622;2022-11-15T09:16:24;9.20;;;5.60;;
4642;SDS011;2334;48.710;9.622;2022-11-15T09:18:51;9.70;;;5.43;;
4642;SDS011;2334;48.710;9.622;2022-11-15T09:21:18;12.20;;;5.70;;
4642;SDS011;2334;48.710;9.622;2022-11-15T09:23:45;10.57;;;5.30;;
4642;SDS011;2334;48.710;9.622;2022-11-15T09:26:14;12.67;;;5.57;;
4642;SDS011;2334;48.710;9.622;2022-11-15T09:28:40;7.53;;;4.87;;
4642;SDS011;2334;48.710;9.622;2022-11-15T09:31:08;6.90;;;4.17;;
4642;SDS011;2334;48.710;9.622;2022-11-15T09:33:35;6.17;;;4.87;;
4642;SDS011;2334;48.710;9.622;2022-11-15T09:36:03;10.23;;;4.90;;
4642;SDS011;2334;48.710;9.622;2022-11-15T09:38:32;9.50;;;6.60;;
4642;SDS011;2334;48.710;9.622;2022-11-15T09:44:08;8.57;;;5.90;;
4642;SDS011;2334;48.710;9.622;2022-11-15T09:46:49;11.07;;;6.43;;
4642;SDS011;2334;48.710;9.622;2022-11-15T09:49:23;12.30;;;5.50;;
4642;SDS011;2334;48.710;9.622;2022-11-15T09:51:51;8.93;;;5.43;;
4642;SDS011;2334;48.710;9.622;2022-11-15T09:54:23;8.90;;;4.63;;
4642;SDS011;2334;48.710;9.622;2022-11-15T09:56:57;11.03;;;4.77;;
4642;SDS011;2334;48.710;9.622;2022-11-15T09:59:36;10.50;;;5.90;;
4642;SDS011;2334;48.710;9.622;2022-11-15T10:02:20;9.50;;;5.97;;
4642;SDS011;2334;48.710;9.622;2022-11-15T10:04:59;10.90;;;5.80;;
4642;SDS011;2334;48.710;9.622;2022-11-15T10:07:30;14.57;;;8.23;;
4642;SDS011;2334;48.710;9.622;2022-11-15T10:10:08;12.87;;;6.30;;
4642;SDS011;2334;48.710;9.622;2022-11-15T10:12:41;10.37;;;5.17;;
4642;SDS011;2334;48.710;9.622;2022-11-15T10:15:13;10.80;;;5.90;;
4642;SDS011;2334;48.710;9.622;2022-11-15T10:18:02;17.73;;;5.47;;
4642;SDS011;2334;48.710;9.622;2022-11-15T10:20:42;9.80;;;5.40;;
4642;SDS011;2334;48.710;9.622;2022-11-15T10:23:14;9.23;;;4.93;;
4642;SDS011;2334;48.710;9.622;2022-11-15T10:25:43;10.53;;;5.90;;
4642;SDS011;2334;48.710;9.622;2022-11-15T10:28:13;8.20;;;5.70;;
4642;SDS011;2334;48.710;9.622;2022-11-15T10:30:43;16.13;;;5.43;;
4642;SDS011;2334;48.710;9.622;2022-11-15T10:33:13;17.03;;;5.40;;
4642;SDS011;2334;48.710;9.622;2022-11-15T10:35:47;10.17;;;5.23;;
4642;SDS011;2334;48.710;9.622;2022-11-15T10:38:14;9.80;;;5.20;;
4642;SDS011;2334;48.710;9.622;2022-11-15T10:40:41;11.17;;;5.80;;
4642;SDS011;2334;48.710;9.622;2022-11-15T10:43:15;8.40;;;5.23;;
4642;SDS011;2334;48.710;9.622;2022-11-15T10:45:43;7.10;;;4.27;;
4642;SDS011;2334;48.710;9.622;2022-11-15T10:48:19;7.63;;;4.70;;
4642;SDS011;2334;48.710;9.622;2022-11-15T10:50:51;7.07;;;4.83;;
4642;SDS011;2334;48.710;9.622;2022-11-15T10:53:21;6.13;;;4.47;;
4642;SDS011;2334;48.710;9.622;2022-11-15T10:56:00;7.73;;;4.37;;
4642;SDS011;2334;48.710;9.622;2022-11-15T10:58:36;12.10;;;4.90;;
4642;SDS011;2334;48.710;9.622;2022-11-15T11:03:59;5.23;;;3.67;;
4642;SDS011;2334;48.710;9.622;2022-11-15T11:06:27;6.40;;;4.20;;
4642;SDS011;2334;48.710;9.622;2022-11-15T11:08:55;12.73;;;4.57;;
4642;SDS011;2334;48.710;9.622;2022-11-15T11:11:23;7.40;;;4.70;;
4642;SDS011;2334;48.710;9.622;2022-11-15T11:13:52;17.30;;;4.47;;
4642;SDS011;2334;48.710;9.622;2022-11-15T11:16:22;10.87;;;4.50;;
4642;SDS011;2334;48.710;9.622;2022-11-15T11:19:01;7.70;;;4.40;;
4642;SDS011;2334;48.710;9.622;2022-11-15T11:21:37;9.43;;;4.30;;
4642;SDS011;2334;48.710;9.622;2022-11-15T11:24:12;4.67;;;3.03;;
4642;SDS011;2334;48.710;9.622;2022-11-15T11:26:45;3.83;;;3.03;;
4642;SDS011;2334;48.710;9.622;2022-11-15T11:29:24;7.10;;;4.63;;
4642;SDS011;2334;48.710;9.622;2022-11-15T11:32:01;9.87;;;5.93;;
4642;SDS011;2334;48.710;9.622;2022-11-15T11:34:42;6.90;;;4.63;;
4642;SDS011;2334;48.710;9.622;2022-11-15T11:37:17;7.20;;;4.53;;
4642;SDS011;2334;48.710;9.622;2022-11-15T11:39:56;7.20;;;4.53;;
4642;SDS011;2334;48.710;9.622;2022-11-15T11:42:33;8.50;;;4.20;;
4642;SDS011;2334;48.710;9.622;2022-11-15T11:45:14;6.50;;;4.30;;
4642;SDS011;2334;48.710;9.622;2022-11-15T11:47:46;7.67;;;4.10;;
4642;SDS011;2334;48.710;9.622;2022-11-15T11:50:17;7.17;;;4.73;;
4642;SDS011;2334;48.710;9.622;2022-11-15T11:52:50;6.67;;;3.83;;
4642;SDS011;2334;48.710;9.622;2022-11-15T11:55:23;12.13;;;3.73;;
4642;SDS011;2334;48.710;9.622;2022-11-15T11:58:03;8.50;;;3.67;;
4642;SDS011;2334;48.710;9.622;2022-11-15T12:00:38;6.53;;;3.57;;
4642;SDS011;2334;48.710;9.622;2022-11-15T12:03:11;4.87;;;3.10;;
4642;SDS011;2334;48.710;9.622;2022-11-15T12:05:41;4.43;;;3.47;;
4642;SDS011;2334;48.710;9.622;2022-11-15T12:08:18;5.20;;;3.77;;
4642;SDS011;2334;48.710;9.622;2022-11-15T12:10:53;5.27;;;3.50;;
4642;SDS011;2334;48.710;9.622;2022-11-15T12:13:26;5.43;;;3.50;;
4642;SDS011;2334;48.710;9.622;2022-11-15T12:16:03;10.47;;;4.90;;
4642;SDS011;2334;48.710;9.622;2022-11-15T12:18:35;9.57;;;3.50;;
4642;SDS011;2334;48.710;9.622;2022-11-15T12:21:04;7.90;;;3.93;;
4642;SDS011;2334;48.710;9.622;2022-11-15T12:23:40;4.57;;;2.73;;
4642;SDS011;2334;48.710;9.622;2022-11-15T12:26:16;4.37;;;3.17;;
4642;SDS011;2334;48.710;9.622;2022-11-15T12:28:47;7.50;;;3.83;;
4642;SDS011;2334;48.710;9.622;2022-11-15T12:31:20;4.90;;;2.77;;
4642;SDS011;2334;48.710;9.622;2022-11-15T12:33:54;5.03;;;3.30;;
4642;SDS011;2334;48.710;9.622;2022-11-15T12:36:30;7.30;;;2.63;;
4642;SDS011;2334;48.710;9.622;2022-11-15T12:39:02;1.97;;;1.87;;
4642;SDS011;2334;48.710;9.622;2022-11-15T12:41:31;3.93;;;2.20;;
4642;SDS011;2334;48.710;9.622;2022-11-15T12:43:59;4.37;;;2.80;;
4642;SDS011;2334;48.710;9.622;2022-11-15T12:49:42;2.70;;;1.73;;
4642;SDS011;2334;48.710;9.622;2022-11-15T12:52:13;10.43;;;1.83;;
4642;SDS011;2334;48.710;9.622;2022-11-15T12:54:50;4.20;;;2.23;;
4642;SDS011;2334;48.710;9.622;2022-11-15T12:57:32;1.77;;;1.63;;
4642;SDS011;2334;48.710;9.622;2022-11-15T13:03:18;2.07;;;1.87;;
4642;SDS011;2334;48.710;9.622;2022-11-15T13:05:57;5.20;;;1.63;;
4642;SDS011;2334;48.710;9.622;2022-11-15T13:08:35;2.47;;;2.27;;
4642;SDS011;2334;48.710;9.622;2022-11-15T13:17:15;4.17;;;2.23;;
4642;SDS011;2334;48.710;9.622;2022-11-15T13:19:59;6.80;;;2.40;;
4642;SDS011;2334;48.710;9.622;2022-11-15T13:22:38;5.50;;;3.27;;
4642;SDS011;2334;48.710;9.622;2022-11-15T13:25:23;2.93;;;2.57;;
4642;SDS011;2334;48.710;9.622;2022-11-15T13:28:09;5.60;;;2.93;;
4642;SDS011;2334;48.710;9.622;2022-11-15T13:30:48;3.60;;;1.90;;
4642;SDS011;2334;48.710;9.622;2022-11-15T13:33:17;3.07;;;2.00;;
4642;SDS011;2334;48.710;9.622;2022-11-15T13:35:47;2.10;;;1.63;;
4642;SDS011;2334;48.710;9.622;2022-11-15T13:38:18;2.70;;;2.50;;
4642;SDS011;2334;48.710;9.622;2022-11-15T13:40:51;1.77;;;1.53;;
4642;SDS011;2334;48.710;9.622;2022-11-15T13:43:23;7.00;;;2.43;;
4642;SDS011;2334;48.710;9.622;2022-11-15T13:46:07;1.60;;;1.50;;
4642;SDS011;2334;48.710;9.622;2022-11-15T13:48:38;3.40;;;1.90;;
4642;SDS011;2334;48.710;9.622;2022-11-15T13:51:09;2.33;;;1.93;;
4642;SDS011;2334;48.710;9.622;2022-11-15T13:53:55;4.10;;;2.47;;
4642;SDS011;2334;48.710;9.622;2022-11-15T13:56:26;6.20;;;2.37;;
4642;SDS011;2334;48.710;9.622;2022-11-15T13:58:55;7.30;;;2.90;;
4642;SDS011;2334;48.710;9.622;2022-11-15T14:01:22;6.93;;;2.70;;
4642;SDS011;2334;48.710;9.622;2022-11-15T14:03:54;5.80;;;2.00;;
4642;SDS011;2334;48.710;9.622;2022-11-15T14:06:25;2.83;;;2.10;;
4642;SDS011;2334;48.710;9.622;2022-11-15T14:08:59;4.90;;;2.17;;
4642;SDS011;2334;48.710;9.622;2022-11-15T14:11:29;2.77;;;2.53;;
4642;SDS011;2334;48.710;9.622;2022-11-15T14:14:12;4.20;;;2.53;;
4642;SDS011;2334;48.710;9.622;2022-11-15T14:16:41;2.33;;;2.00;;
4642;SDS011;2334;48.710;9.622;2022-11-15T14:19:10;3.60;;;2.00;;
4642;SDS011;2334;48.710;9.622;2022-11-15T14:24:40;3.03;;;2.00;;
4642;SDS011;2334;48.710;9.622;2022-11-15T14:27:18;2.63;;;2.03;;
4642;SDS011;2334;48.710;9.622;2022-11-15T14:29:47;4.97;;;2.57;;
4642;SDS011;2334;48.710;9.622;2022-11-15T14:32:15;4.00;;;2.53;;
4642;SDS011;2334;48.710;9.622;2022-11-15T14:34:44;4.43;;;2.80;;
4642;SDS011;2334;48.710;9.622;2022-11-15T14:37:16;4.07;;;3.00;;
4642;SDS011;2334;48.710;9.622;2022-11-15T14:39:48;5.43;;;3.50;;
4642;SDS011;2334;48.710;9.622;2022-11-15T14:42:16;3.90;;;2.47;;
4642;SDS011;2334;48.710;9.622;2022-11-15T14:44:43;4.03;;;2.47;;
4642;SDS011;2334;48.710;9.622;2022-11-15T14:47:10;4.07;;;2.47;;
4642;SDS011;2334;48.710;9.622;2022-11-15T14:49:37;6.87;;;2.60;;
4642;SDS011;2334;48.710;9.622;2022-11-15T14:52:07;3.70;;;2.70;;
4642;SDS011;2334;48.710;9.622;2022-11-15T14:54:42;2.73;;;2.37;;
4642;SDS011;2334;48.710;9.622;2022-11-15T14:57:10;8.57;;;3.10;;
4642;SDS011;2334;48.710;9.622;2022-11-15T14:59:37;3.43;;;2.93;;
4642;SDS011;2334;48.710;9.622;2022-11-15T15:02:08;4.33;;;2.53;;
4642;SDS011;2334;48.710;9.622;2022-11-15T15:04:41;7.20;;;2.80;;
4642;SDS011;2334;48.710;9.622;2022-11-15T15:07:08;7.90;;;3.30;;
4642;SDS011;2334;48.710;9.622;2022-11-15T15:09:35;10.70;;;3.30;;
4642;SDS011;2334;48.710;9.622;2022-11-15T15:12:02;7.40;;;4.00;;
4642;SDS011;2334;48.710;9.622;2022-11-15T15:14:31;14.27;;;3.37;;
4642;SDS011;2334;48.710;9.622;2022-11-15T15:16:58;10.10;;;3.10;;
4642;SDS011;2334;48.710;9.622;2022-11-15T15:19:25;8.27;;;4.00;;
4642;SDS011;2334;48.710;9.622;2022-11-15T15:21:52;11.20;;;5.70;;
4642;SDS011;2334;48.710;9.622;2022-11-15T15:24:18;10.40;;;4.87;;
4642;SDS011;2334;48.710;9.622;2022-11-15T15:26:45;7.07;;;4.70;;
4642;SDS011;2334;48.710;9.622;2022-11-15T15:29:12;7.43;;;4.87;;
4642;SDS011;2334;48.710;9.622;2022-11-15T15:31:40;5.53;;;4.57;;
4642;SDS011;2334;48.710;9.622;2022-11-15T15:34:07;6.30;;;4.43;;
4642;SDS011;2334;48.710;9.622;2022-11-15T15:36:34;7.33;;;4.47;;
4642;SDS011;2334;48.710;9.622;2022-11-15T15:39:01;10.97;;;3.47;;
4642;SDS011;2334;48.710;9.622;2022-11-15T15:41:28;10.00;;;3.80;;
4642;SDS011;2334;48.710;9.622;2022-11-15T15:43:55;4.03;;;3.10;;
4642;SDS011;2334;48.710;9.622;2022-11-15T15:46:21;7.10;;;3.90;;
4642;SDS011;2334;48.710;9.622;2022-11-15T15:48:50;6.60;;;4.00;;
4642;SDS011;2334;48.710;9.622;2022-11-15T15:51:17;6.87;;;3.57;;
4642;SDS011;2334;48.710;9.622;2022-11-15T15:53:43;8.13;;;4.07;;